Startpagina
METAR-TAF:

METAR-TAF

Vliegvelden :

Koeweit, Koeweit

breedte: 29-13N, lengte: 047-59E, hoogte: 55 m

Actueel weer

Dit bericht is 6 minuten geleden gemaakt, om 12:00 UTC
Wind 12 kt uit het oostzuidoosten
Temperatuur 26°C
Vochtigheid 42%
Druk 1017 hPa
Zicht 10 km of meer
geen wolken onder 1500 m en geen cumulonimbus

METAR: OKBK 191200Z 12012KT CAVOK 26/12 Q1017 NOSIG

Tijdstip: 15:06 (12:06 UTC)

Verwachting

Dit bericht is 1 uur en het 21 minuten geleden gemaakt, om 10:45 UTC
Verwachting geldig van 19 om 12 UTC tot 20 om 18 UTC
Wind 8 kt uit het zuidoosten met uitschieters tot 18 kt
Zicht: 7000 m
Weinig wolken op 4000 ft
Gebroken wolken op 8000 ft
Tijdelijke
van 19 om 18 UTC tot 20 om 03 UTC
Zicht: 4000 m
regen

TAF: OKBK 191045Z 1912/2018 14008G18KT 7000 FEW040 BKN080 TEMPO 1918/2003 4000 RA

Waarnemingen en weersverwachtingen van meer dan 4000 vliegvelden (METAR en TAF).

De beschikbare stations zijn de gele en rode punten op de kaart.

Ga met uw muis naar het station om de naam te zien.

Klik dan om waarnemingen en weersverwachtingen te zien.

kaart wijzigen: klik op de groene knoppen met een zwart kruis om in te zoomen, op de groene knop met een streepje om uit te zoomen of op de groene pijlen voor aangrenzende kaarten.


METAR-TAF: